RYR80XP LEBL-ELLX
Flight info
| Callsign | RYR80XP |
|---|---|
| Flight time | N/A |
| Altitude | 34000 |
| Route | DALIN N870 DIBER DCT ODIXU DCT MAXIR DCT LUSOL DCT BODRU DCT OKTET DCT IRMAR DCT KINES DCT VANAS DCT MOBLO DCT UBIMA DCT GILIR DCT PENDU DCT IXILU DCT EPL G21 GIVOR V36 AKELU |
| Aircraft | B38M/M-SDE1FGHILORVWXY/HB1 |
Departure
| Time | N/A |
|---|---|
| Airport | Josep Tarradellas Barcelona-El Prat Airport (LEBL) |
Arrival
| Time | 2026-04-30 18:30 |
|---|---|
| Airport | Luxembourg-Findel International Airport (ELLX) |
| Time | Latitude | Longitude | Altitude | Speed | Heading |
|---|---|---|---|---|---|
| 2026-04-30 17:39 | 44.74548 | 6.65541 | 34222 ft | 433 kts | 351° |
| 2026-04-30 17:42 | 45.04439 | 6.60349 | 34230 ft | 430 kts | 351° |
| 2026-04-30 17:43 | 45.19261 | 6.57764 | 34229 ft | 430 kts | 351° |
| 2026-04-30 17:44 | 45.37164 | 6.54623 | 34213 ft | 435 kts | 351° |
| 2026-04-30 17:47 | 45.64112 | 6.49857 | 34196 ft | 436 kts | 352° |
| 2026-04-30 17:48 | 45.85155 | 6.46105 | 34166 ft | 434 kts | 353° |
| 2026-04-30 17:50 | 46.09130 | 6.41792 | 34161 ft | 436 kts | 354° |
| 2026-04-30 17:52 | 46.27183 | 6.38521 | 34154 ft | 440 kts | 354° |
| 2026-04-30 17:54 | 46.54482 | 6.33532 | 34175 ft | 439 kts | 354° |
| 2026-04-30 17:56 | 46.78718 | 6.29061 | 34175 ft | 439 kts | 354° |
| 2026-04-30 17:58 | 46.96800 | 6.25699 | 34175 ft | 436 kts | 355° |
| 2026-04-30 17:59 | 47.08869 | 6.24160 | 34177 ft | 431 kts | 7° |
| 2026-04-30 18:00 | 47.20851 | 6.25265 | 34164 ft | 433 kts | 6° |
| 2026-04-30 18:01 | 47.35831 | 6.26662 | 34163 ft | 432 kts | 6° |
| 2026-04-30 18:02 | 47.53823 | 6.28352 | 34172 ft | 431 kts | 6° |
| 2026-04-30 18:04 | 47.71808 | 6.30053 | 34046 ft | 427 kts | 6° |
| 2026-04-30 18:05 | 47.83369 | 6.31152 | 32956 ft | 412 kts | 6° |
| 2026-04-30 18:06 | 47.94706 | 6.32235 | 31924 ft | 406 kts | 6° |
| 2026-04-30 18:07 | 48.05925 | 6.33311 | 30897 ft | 398 kts | 6° |
| 2026-04-30 18:08 | 48.14202 | 6.34108 | 29172 ft | 398 kts | 6° |
| 2026-04-30 18:09 | 48.25029 | 6.35156 | 27427 ft | 383 kts | 6° |
| 2026-04-30 18:10 | 48.35515 | 6.36173 | 25761 ft | 373 kts | 7° |
| 2026-04-30 18:11 | 48.45763 | 6.37173 | 24188 ft | 365 kts | 7° |
| 2026-04-30 18:11 | 48.53312 | 6.37910 | 22977 ft | 359 kts | 7° |
| 2026-04-30 18:12 | 48.60699 | 6.38634 | 21872 ft | 349 kts | 7° |
| 2026-04-30 18:13 | 48.65493 | 6.39107 | 21155 ft | 344 kts | 7° |
| 2026-04-30 18:13 | 48.71811 | 6.39750 | 20193 ft | 337 kts | 7° |
| 2026-04-30 18:14 | 48.77212 | 6.40298 | 19450 ft | 330 kts | 7° |
| 2026-04-30 18:15 | 48.84014 | 6.40986 | 18506 ft | 323 kts | 7° |
| 2026-04-30 18:15 | 48.90821 | 6.41680 | 17397 ft | 331 kts | 7° |
| 2026-04-30 18:16 | 48.95414 | 6.42146 | 16701 ft | 329 kts | 7° |
| 2026-04-30 18:16 | 48.99946 | 6.42609 | 16008 ft | 324 kts | 7° |
| 2026-04-30 18:17 | 49.02184 | 6.42836 | 15670 ft | 321 kts | 8° |
| 2026-04-30 18:17 | 49.04414 | 6.43064 | 15324 ft | 320 kts | 7° |
| 2026-04-30 18:17 | 49.08802 | 6.43514 | 14650 ft | 316 kts | 7° |
| 2026-04-30 18:18 | 49.11006 | 6.43740 | 14305 ft | 314 kts | 7° |
| 2026-04-30 18:18 | 49.13159 | 6.43962 | 13964 ft | 313 kts | 7° |
| 2026-04-30 18:18 | 49.15328 | 6.44185 | 13593 ft | 311 kts | 7° |
| 2026-04-30 18:18 | 49.17487 | 6.44406 | 13245 ft | 309 kts | 8° |
| 2026-04-30 18:19 | 49.19621 | 6.44626 | 12914 ft | 306 kts | 7° |
| 2026-04-30 18:19 | 49.21723 | 6.44842 | 12588 ft | 304 kts | 7° |
| 2026-04-30 18:19 | 49.23831 | 6.45058 | 12260 ft | 303 kts | 7° |
| 2026-04-30 18:19 | 49.25225 | 6.45202 | 12044 ft | 301 kts | 7° |
| 2026-04-30 18:20 | 49.27315 | 6.45418 | 11719 ft | 299 kts | 7° |
| 2026-04-30 18:20 | 49.29387 | 6.45632 | 11395 ft | 298 kts | 7° |
| 2026-04-30 18:20 | 49.31458 | 6.45845 | 11079 ft | 296 kts | 7° |
| 2026-04-30 18:20 | 49.33509 | 6.46058 | 10763 ft | 294 kts | 8° |
| 2026-04-30 18:21 | 49.35545 | 6.46191 | 10515 ft | 292 kts | 357° |
| 2026-04-30 18:21 | 49.37494 | 6.45313 | 10179 ft | 296 kts | 333° |
| 2026-04-30 18:21 | 49.39185 | 6.43566 | 9856 ft | 295 kts | 327° |
| 2026-04-30 18:21 | 49.40861 | 6.41748 | 9519 ft | 294 kts | 326° |
| 2026-04-30 18:22 | 49.42527 | 6.39921 | 9135 ft | 295 kts | 326° |
| 2026-04-30 18:22 | 49.45863 | 6.36235 | 8468 ft | 293 kts | 326° |
| 2026-04-30 18:22 | 49.47520 | 6.34397 | 8090 ft | 295 kts | 326° |
| 2026-04-30 18:23 | 49.49194 | 6.32532 | 7624 ft | 298 kts | 324° |
| 2026-04-30 18:23 | 49.50601 | 6.30238 | 7151 ft | 300 kts | 302° |
| 2026-04-30 18:23 | 49.51419 | 6.27329 | 6796 ft | 293 kts | 281° |
| 2026-04-30 18:23 | 49.51710 | 6.24269 | 6429 ft | 288 kts | 274° |
| 2026-04-30 18:24 | 49.51618 | 6.18134 | 5555 ft | 285 kts | 263° |
| 2026-04-30 18:24 | 49.51466 | 6.15078 | 5130 ft | 286 kts | 263° |
| 2026-04-30 18:24 | 49.51331 | 6.12113 | 4824 ft | 275 kts | 263° |
| 2026-04-30 18:25 | 49.51195 | 6.09228 | 4568 ft | 263 kts | 263° |
| 2026-04-30 18:25 | 49.51771 | 6.04031 | 4054 ft | 239 kts | 304° |
| 2026-04-30 18:25 | 49.52898 | 6.02272 | 3782 ft | 221 kts | 336° |
| 2026-04-30 18:26 | 49.55527 | 6.02236 | 3281 ft | 177 kts | 44° |
| 2026-04-30 18:26 | 49.56218 | 6.03646 | 3122 ft | 161 kts | 72° |
| 2026-04-30 18:26 | 49.56705 | 6.05208 | 3033 ft | 165 kts | 65° |
| 2026-04-30 18:27 | 49.57745 | 6.07985 | 2805 ft | 131 kts | 66° |
| 2026-04-30 18:27 | 49.58167 | 6.09131 | 2683 ft | 118 kts | 66° |
| 2026-04-30 18:28 | 49.58971 | 6.11309 | 2347 ft | 118 kts | 65° |
| 2026-04-30 18:28 | 49.59400 | 6.12410 | 2238 ft | 119 kts | 65° |
| 2026-04-30 18:28 | 49.60211 | 6.14612 | 1837 ft | 117 kts | 65° |
| 2026-04-30 18:29 | 49.60640 | 6.15746 | 1625 ft | 125 kts | 63° |
| 2026-04-30 18:29 | 49.61973 | 6.19339 | 1183 ft | 117 kts | 64° |
| 2026-04-30 18:30 | 49.62517 | 6.20811 | 1234 ft | 40 kts | 60° |
| 2026-04-30 18:30 | 49.62744 | 6.21185 | 1237 ft | 18 kts | 30° |
| 2026-04-30 18:31 | 49.62837 | 6.21268 | 1231 ft | 13 kts | 30° |
| 2026-04-30 18:31 | 49.62891 | 6.21316 | 1231 ft | 0 kts | 27° |
| 2026-04-30 18:32 | 49.62939 | 6.21336 | 1231 ft | 12 kts | 8° |
| 2026-04-30 18:32 | 49.63001 | 6.21399 | 1231 ft | 13 kts | 63° |
| 2026-04-30 18:32 | 49.63047 | 6.21552 | 1228 ft | 9 kts | 64° |
| 2026-04-30 18:33 | 49.63083 | 6.21667 | 1228 ft | 14 kts | 64° |
| 2026-04-30 18:33 | 49.63159 | 6.21758 | 1230 ft | 5 kts | 335° |
| 2026-04-30 18:33 | 49.63178 | 6.21721 | 1231 ft | 2 kts | 254° |
| 2026-04-30 18:34 | 49.63170 | 6.21692 | 1231 ft | 3 kts | 241° |
| 2026-04-30 18:34 | 49.63162 | 6.21671 | 1231 ft | 0 kts | 240° |